Time;durP1;ratioP1;P1;durP2;ratioP2;P2;SDS_P1;SDS_P2;PMS_P1;PMS_P2;Temp;Humidity;BMP_temperature;BMP_pressure;BME280_temperature;BME280_humidity;BME280_pressure;Samples;Min_cycle;Max_cycle;Signal;HPM_P1;HPM_P2
2022/11/05 00:09:28;;;;;;;;;;;;;;;4.68;91.78;99679.70;1687988;85;20204;-83
2022/11/05 00:17:29;;;;;;;;;;;;;;;4.59;91.89;99680.61;1687710;84;20216;-83
2022/11/05 00:19:55;;;;;;;;;;;;;;;4.56;91.84;99674.14;1687817;84;20923;-85
2022/11/05 00:25:13;;;;;;;;;;;;;;;4.56;92.96;99676.30;1687725;85;21194;-84
2022/11/05 00:27:40;;;;;;;;;;;;;;;4.59;93.82;99678.00;1687491;84;20161;-85
2022/11/05 00:30:08;;;;;;;;;;;;;;;4.57;94.98;99679.34;1687921;84;20423;-81
2022/11/05 00:32:35;;;;;;;;;;;;;;;4.61;96.03;99685.40;1664223;85;20219;-85
2022/11/05 00:35:04;;;;;;;;;;;;;;;4.65;96.71;99687.09;1687351;84;20205;-86
2022/11/05 00:37:31;;;;;;;;;;;;;;;4.69;97.32;99690.12;1687573;84;21139;-85
2022/11/05 00:39:57;;;;;;;;;;;;;;;4.73;98.15;99676.17;1687526;85;20245;-85
2022/11/05 00:45:09;;;;;;;;;;;;;;;4.83;99.71;99681.72;1687761;84;20430;-84
2022/11/05 00:50:22;;;;;;;;;;;;;;;4.92;100.00;99671.65;1687652;85;21118;-84
2022/11/05 00:52:55;;;;;;;;;;;;;;;4.94;100.00;99667.73;1687415;85;20208;-83
2022/11/05 00:55:33;;;;;;;;;;;;;;;4.98;100.00;99669.45;1687480;85;20229;-84
2022/11/05 00:57:59;;;;;;;;;;;;;;;5.02;100.00;99673.73;1687422;84;20465;-83
2022/11/05 01:00:27;;;;;;;;;;;;;;;5.03;100.00;99678.09;1687630;85;20515;-85
2022/11/05 01:02:56;;;;;;;;;;;;;;;5.02;100.00;99679.81;1687722;84;21169;-84
2022/11/05 01:05:23;;;;;;;;;;;;;;;5.02;100.00;99676.34;1687721;85;20294;-82
2022/11/05 01:07:51;;;;;;;;;;;;;;;5.02;100.00;99677.65;1687562;85;20511;-83
2022/11/05 01:10:18;;;;;;;;;;;;;;;5.03;100.00;99678.09;1687514;84;20173;-82
2022/11/05 01:12:45;;;;;;;;;;;;;;;5.02;100.00;99673.73;1687536;84;20150;-85
2022/11/05 01:15:11;;;;;;;;;;;;;;;5.01;100.00;99683.77;1687837;84;21161;-85
2022/11/05 01:17:37;;;;;;;;;;;;;;;5.01;100.00;99683.77;1687796;84;20256;-84
2022/11/05 01:20:04;;;;;;;;;;;;;;;4.99;100.00;99678.97;1687686;85;20200;-84
2022/11/05 01:22:31;;;;;;;;;;;;;;;4.96;100.00;99681.61;1687932;85;20220;-84
2022/11/05 01:24:59;;;;;;;;;;;;;;;4.92;99.99;99687.74;1687657;84;20565;-84
2022/11/05 01:27:25;;;;;;;;;;;;;;;4.89;99.54;99687.77;1687528;85;21144;-84
2022/11/05 01:29:51;;;;;;;;;;;;;;;4.87;99.20;99686.92;1687514;85;20192;-85
2022/11/05 01:32:18;;;;;;;;;;;;;;;4.84;98.79;99679.97;1687827;85;20213;-83
2022/11/05 01:34:45;;;;;;;;;;;;;;;4.80;98.53;99683.05;1687489;84;20209;-84
2022/11/05 01:37:12;;;;;;;;;;;;;;;4.80;98.59;99684.35;1687618;85;20219;-82
2022/11/05 01:39:39;;;;;;;;;;;;;;;4.79;98.72;99682.64;1687690;85;21153;-82
2022/11/05 01:42:14;;;;;;;;;;;;;;;4.80;98.61;99686.11;1687639;84;20165;-83
2022/11/05 01:45:01;;;;;;;;;;;;;;;4.77;98.17;99692.20;1664316;85;20189;-84
2022/11/05 01:47:50;;;;;;;;;;;;;;;4.74;98.00;99692.25;1687576;85;20837;-85
2022/11/05 01:50:29;;;;;;;;;;;;;;;4.75;98.47;99697.87;1687844;85;20208;-84
2022/11/05 01:53:20;;;;;;;;;;;;;;;4.79;99.33;99694.79;1687587;85;21130;-84
2022/11/05 01:55:50;;;;;;;;;;;;;;;4.80;100.00;99694.78;1687367;84;20180;-85
2022/11/05 01:58:19;;;;;;;;;;;;;;;4.82;100.00;99690.45;1687438;85;20232;-85
2022/11/05 02:00:47;;;;;;;;;;;;;;;4.86;100.00;99691.28;1690037;84;20169;-79
2022/11/05 02:03:14;;;;;;;;;;;;;;;4.90;100.00;99694.72;1692680;80;20165;-78
2022/11/05 02:05:41;;;;;;;;;;;;;;;4.93;100.00;99697.30;1691884;80;21097;-83
2022/11/05 02:08:09;;;;;;;;;;;;;;;4.93;100.00;99692.09;1687770;84;20219;-84
2022/11/05 02:10:35;;;;;;;;;;;;;;;4.98;100.00;99692.91;1687904;85;20205;-84
2022/11/05 02:13:03;;;;;;;;;;;;;;;5.03;100.00;99695.03;1687708;84;20233;-85
2022/11/05 02:15:36;;;;;;;;;;;;;;;5.06;100.00;99696.31;1687750;85;20252;-84
2022/11/05 02:18:18;;;;;;;;;;;;;;;5.10;100.00;99699.31;1687555;84;21950;-85
2022/11/05 02:20:55;;;;;;;;;;;;;;;5.13;100.00;99703.20;1687544;84;20209;-85
2022/11/05 02:23:31;;;;;;;;;;;;;;;5.19;100.00;99697.05;1632509;85;20244;-84
2022/11/05 02:26:10;;;;;;;;;;;;;;;5.20;100.00;99690.52;1686718;84;20204;-84
2022/11/05 02:28:43;;;;;;;;;;;;;;;5.20;100.00;99696.17;1687899;84;20606;-85
2022/11/05 02:31:19;;;;;;;;;;;;;;;5.21;100.00;99701.38;1686726;85;21808;-84
2022/11/05 02:34:21;;;;;;;;;;;;;;;5.24;100.00;99705.69;1687328;84;21037;-83
2022/11/05 02:37:10;;;;;;;;;;;;;;;5.25;100.00;99695.69;1687352;84;20284;-84
2022/11/05 02:39:40;;;;;;;;;;;;;;;5.27;100.00;99689.16;1687693;84;20220;-83
2022/11/05 02:42:12;;;;;;;;;;;;;;;5.27;100.00;99681.33;1687498;85;20216;-83
2022/11/05 02:44:53;;;;;;;;;;;;;;;5.24;100.00;99676.14;1687616;84;20248;-85
2022/11/05 02:47:26;;;;;;;;;;;;;;;5.20;100.00;99676.16;1687405;85;20232;-85
2022/11/05 02:50:10;;;;;;;;;;;;;;;5.18;100.00;99680.54;1687459;84;20212;-85
2022/11/05 02:52:55;;;;;;;;;;;;;;;5.16;100.00;99671.88;1687537;84;20189;-84
2022/11/05 02:55:28;;;;;;;;;;;;;;;5.17;100.00;99677.94;1687578;85;20224;-84
2022/11/05 02:57:55;;;;;;;;;;;;;;;5.13;100.00;99679.72;1686643;85;21145;-83
2022/11/05 03:00:45;;;;;;;;;;;;;;;5.11;100.00;99687.13;1687510;84;20208;-83
2022/11/05 03:03:18;;;;;;;;;;;;;;;5.10;100.00;99690.18;1687419;84;20229;-84
2022/11/05 03:05:51;;;;;;;;;;;;;;;5.08;100.00;99686.73;1687803;85;20225;-84
2022/11/05 03:08:37;;;;;;;;;;;;;;;5.06;100.00;99683.70;1687562;85;20181;-84
2022/11/05 03:11:14;;;;;;;;;;;;;;;5.04;100.00;99683.70;1686670;84;21164;-85
2022/11/05 03:14:01;;;;;;;;;;;;;;;5.01;100.00;99689.83;1664621;85;20551;-81
2022/11/05 03:16:36;;;;;;;;;;;;;;;5.00;100.00;99686.79;1687736;84;20229;-83
2022/11/05 03:19:13;;;;;;;;;;;;;;;4.99;100.00;99684.19;1687445;84;20674;-84
2022/11/05 03:22:02;;;;;;;;;;;;;;;4.96;100.00;99682.91;1687200;85;20367;-83
2022/11/05 03:24:34;;;;;;;;;;;;;;;4.94;100.00;99695.99;1614366;85;21066;-84
2022/11/05 03:27:07;;;;;;;;;;;;;;;4.93;100.00;99699.91;1687690;84;20133;-84
2022/11/05 03:29:46;;;;;;;;;;;;;;;4.91;100.00;99705.55;1687164;85;20404;-85
2022/11/05 03:32:13;;;;;;;;;;;;;;;4.91;100.00;99712.08;1687719;85;20637;-83
2022/11/05 03:34:47;;;;;;;;;;;;;;;4.94;100.00;99709.45;1687688;84;20515;-85
2022/11/05 03:37:13;;;;;;;;;;;;;;;4.97;100.00;99709.42;1694703;84;21117;-85
2022/11/05 03:39:45;;;;;;;;;;;;;;;5.00;100.00;99706.80;1695467;84;20540;-85
2022/11/05 03:42:13;;;;;;;;;;;;;;;5.02;100.00;99707.19;1695545;84;20537;-83
2022/11/05 03:44:44;;;;;;;;;;;;;;;5.03;100.00;99697.20;1695569;84;20493;-82
2022/11/05 03:47:13;;;;;;;;;;;;;;;5.05;100.00;99702.41;1695519;84;20439;-84
2022/11/05 03:49:47;;;;;;;;;;;;;;;5.05;100.00;99707.61;1695583;84;22136;-83
2022/11/05 03:52:17;;;;;;;;;;;;;;;5.05;100.00;99708.06;1684596;84;20698;-83
2022/11/05 03:54:45;;;;;;;;;;;;;;;5.04;100.00;99711.09;1695373;84;20224;-84
2022/11/05 03:57:20;;;;;;;;;;;;;;;5.03;100.00;99710.23;1695504;84;20220;-85
2022/11/05 03:59:48;;;;;;;;;;;;;;;5.02;100.00;99712.85;1695714;84;20203;-85
2022/11/05 04:02:17;;;;;;;;;;;;;;;5.00;100.00;99714.17;1695537;84;21163;-81
2022/11/05 04:04:45;;;;;;;;;;;;;;;5.00;100.00;99714.62;1695457;84;20196;-85
2022/11/05 04:15:28;;;;;;;;;;;;;;;5.00;100.00;99714.17;1695817;84;20723;-85
2022/11/05 04:17:57;;;;;;;;;;;;;;;5.01;100.00;99716.36;1695408;84;20759;-85
2022/11/05 04:25:58;;;;;;;;;;;;;;;4.97;100.00;99724.63;1695942;84;20181;-82
2022/11/05 04:30:17;;;;;;;;;;;;;;;4.96;100.00;99723.33;1695647;84;21001;-83
2022/11/05 04:30:55;;;;;;;;;;;;;;;4.95;100.00;99732.05;1692685;84;20144;-85
2022/11/05 04:33:21;;;;;;;;;;;;;;;4.93;100.00;99732.06;1695546;82;20203;-86
2022/11/05 04:35:48;;;;;;;;;;;;;;;4.92;100.00;99735.53;1695112;83;20464;-85
2022/11/05 04:38:17;;;;;;;;;;;;;;;4.93;100.00;99740.33;1692279;84;20178;-82
2022/11/05 04:40:44;;;;;;;;;;;;;;;4.92;100.00;99745.95;1692567;84;20795;-84
2022/11/05 04:43:15;;;;;;;;;;;;;;;4.88;100.00;99746.02;1692258;84;20548;-84
2022/11/05 04:45:42;;;;;;;;;;;;;;;4.85;100.00;99750.80;1692065;84;20494;-84
2022/11/05 04:48:08;;;;;;;;;;;;;;;4.86;100.00;99756.87;1692144;84;20196;-85
2022/11/05 04:50:35;;;;;;;;;;;;;;;4.87;100.00;99763.83;1692445;84;20592;-85
2022/11/05 04:53:02;;;;;;;;;;;;;;;4.84;100.00;99768.20;1692388;84;21149;-84
2022/11/05 04:55:28;;;;;;;;;;;;;;;4.84;100.00;99763.40;1692312;84;20196;-86
2022/11/05 04:57:55;;;;;;;;;;;;;;;4.86;100.00;99767.30;1692530;84;20240;-84
2022/11/05 05:00:21;;;;;;;;;;;;;;;4.89;100.00;99765.53;1692180;84;20347;-83
2022/11/05 05:02:48;;;;;;;;;;;;;;;4.92;100.00;99768.56;1692246;84;20580;-85
2022/11/05 05:05:14;;;;;;;;;;;;;;;4.93;100.00;99774.22;1692402;84;21207;-86
2022/11/05 05:07:41;;;;;;;;;;;;;;;4.95;100.00;99778.98;1692035;84;20355;-87
2022/11/05 05:10:08;;;;;;;;;;;;;;;4.99;100.00;99783.28;1692386;84;20208;-84
2022/11/05 05:12:34;;;;;;;;;;;;;;;5.00;100.00;99785.02;1692102;84;20212;-84
2022/11/05 05:15:03;;;;;;;;;;;;;;;5.03;100.00;99788.92;1692120;84;20184;-85
2022/11/05 05:18:02;;;;;;;;;;;;;;;5.03;100.00;99795.44;1692209;84;21962;-85
2022/11/05 05:23:15;;;;;;;;;;;;;;;5.07;100.00;99808.02;1692604;84;20196;-83
2022/11/05 05:25:41;;;;;;;;;;;;;;;5.05;100.00;99809.33;1692284;84;20553;-82
2022/11/05 05:28:07;;;;;;;;;;;;;;;5.06;100.00;99812.79;1692116;84;21064;-86
2022/11/05 05:30:35;;;;;;;;;;;;;;;5.10;100.00;99817.98;1692332;84;22383;-85
2022/11/05 05:33:03;;;;;;;;;;;;;;;5.12;100.00;99817.52;1692084;84;20196;-85
2022/11/05 05:35:30;;;;;;;;;;;;;;;5.13;100.00;99811.89;1692233;84;20889;-85
2022/11/05 05:37:57;;;;;;;;;;;;;;;5.14;100.00;99814.91;1687749;84;20526;-85
2022/11/05 05:40:23;;;;;;;;;;;;;;;5.15;100.00;99816.20;1687671;85;20216;-86
2022/11/05 05:42:54;;;;;;;;;;;;;;;5.17;100.00;99816.19;1687740;84;21167;-85
2022/11/05 05:45:20;;;;;;;;;;;;;;;5.18;100.00;99820.09;1687438;85;20559;-84
2022/11/05 05:47:46;;;;;;;;;;;;;;;5.20;100.00;99823.55;1687455;85;20224;-84
2022/11/05 05:50:13;;;;;;;;;;;;;;;5.24;100.00;99828.75;1687841;85;20157;-84
2022/11/05 05:52:40;;;;;;;;;;;;;;;5.26;100.00;99820.46;1687616;84;20204;-84
2022/11/05 05:55:08;;;;;;;;;;;;;;;5.27;100.00;99824.81;1687561;84;21163;-83
2022/11/05 05:57:35;;;;;;;;;;;;;;;5.27;100.00;99822.20;1687309;85;20446;-85
2022/11/05 06:00:04;;;;;;;;;;;;;;;5.30;100.00;99824.80;1687512;84;20516;-84
2022/11/05 06:02:33;;;;;;;;;;;;;;;5.31;100.00;99823.48;1686903;85;20208;-84
2022/11/05 06:04:59;;;;;;;;;;;;;;;5.32;100.00;99822.58;1687613;84;20224;-84
2022/11/05 06:07:26;;;;;;;;;;;;;;;5.34;100.00;99826.48;1687628;84;21788;-83
2022/11/05 06:09:52;;;;;;;;;;;;;;;5.37;100.00;99830.38;1687195;85;20205;-84
2022/11/05 06:12:18;;;;;;;;;;;;;;;5.39;100.00;99830.78;1687534;85;20149;-85
2022/11/05 06:14:45;;;;;;;;;;;;;;;5.42;100.00;99842.95;1687603;84;20188;-83
2022/11/05 06:17:11;;;;;;;;;;;;;;;5.45;100.00;99840.77;1687496;84;20174;-83
2022/11/05 06:19:38;;;;;;;;;;;;;;;5.48;100.00;99850.73;1687474;85;21831;-83
2022/11/05 06:22:04;;;;;;;;;;;;;;;5.49;100.00;99851.14;1687409;84;20244;-84
2022/11/05 06:24:31;;;;;;;;;;;;;;;5.53;100.00;99855.89;1687648;84;20173;-82
2022/11/05 06:26:57;;;;;;;;;;;;;;;5.53;100.00;99856.78;1687689;85;20169;-85
2022/11/05 06:29:23;;;;;;;;;;;;;;;5.56;100.00;99859.78;1687717;85;20145;-83
2022/11/05 06:31:51;;;;;;;;;;;;;;;5.56;100.00;99864.59;1687564;85;21156;-86
2022/11/05 06:34:19;;;;;;;;;;;;;;;5.55;100.00;99855.02;1687380;85;20126;-84
2022/11/05 06:36:45;;;;;;;;;;;;;;;5.57;100.00;99853.25;1687767;84;20198;-84
2022/11/05 06:39:12;;;;;;;;;;;;;;;5.58;100.00;99851.50;1687454;85;21058;-81
2022/11/05 06:41:39;;;;;;;;;;;;;;;5.58;100.00;99849.77;1687635;85;20558;-83
2022/11/05 06:44:05;;;;;;;;;;;;;;;5.59;100.00;99856.70;1687609;85;21084;-84
2022/11/05 06:46:31;;;;;;;;;;;;;;;5.59;100.00;99856.70;1687501;84;20196;-84
2022/11/05 06:48:58;;;;;;;;;;;;;;;5.62;100.00;99853.67;1687514;85;20236;-84
2022/11/05 06:51:25;;;;;;;;;;;;;;;5.62;100.00;99857.59;1687588;85;20663;-85
2022/11/05 06:53:52;;;;;;;;;;;;;;;5.64;100.00;99861.04;1687870;85;20188;-84
2022/11/05 06:56:18;;;;;;;;;;;;;;;5.65;100.00;99866.66;1687580;84;21136;-83
2022/11/05 06:58:45;;;;;;;;;;;;;;;5.63;100.00;99868.43;1687508;85;20212;-83
2022/11/05 07:01:11;;;;;;;;;;;;;;;5.59;100.00;99867.59;1687356;84;20228;-84
2022/11/05 07:03:38;;;;;;;;;;;;;;;5.61;100.00;99880.19;1687429;84;20347;-85
2022/11/05 07:06:05;;;;;;;;;;;;;;;5.64;100.00;99878.01;1687725;84;20208;-84
2022/11/05 07:08:32;;;;;;;;;;;;;;;5.68;100.00;99886.22;1687455;84;20636;-83
2022/11/05 07:10:59;;;;;;;;;;;;;;;5.73;100.00;99889.66;1689281;84;20192;-78
2022/11/05 07:13:25;;;;;;;;;;;;;;;5.76;100.00;99895.72;1691053;84;20955;-83
2022/11/05 07:15:52;;;;;;;;;;;;;;;5.81;100.00;99902.21;1691517;84;20154;-85
2022/11/05 07:18:19;;;;;;;;;;;;;;;5.85;100.00;99900.02;1689227;84;20514;-85
2022/11/05 07:20:46;;;;;;;;;;;;;;;5.88;100.00;99901.27;1687409;85;21244;-83
2022/11/05 07:23:13;;;;;;;;;;;;;;;5.91;100.00;99897.33;1687250;85;20220;-84
2022/11/05 07:25:40;;;;;;;;;;;;;;;5.97;100.00;99896.87;1687495;84;20237;-83
2022/11/05 07:28:07;;;;;;;;;;;;;;;6.00;100.00;99898.15;1687540;85;20419;-85
2022/11/05 07:30:34;;;;;;;;;;;;;;;6.01;100.00;99897.28;1687545;84;20204;-84
2022/11/05 07:33:02;;;;;;;;;;;;;;;6.02;100.00;99897.69;1687423;84;21151;-84
2022/11/05 07:35:29;;;;;;;;;;;;;;;6.03;100.00;99899.44;1687389;84;20217;-86
2022/11/05 07:37:56;;;;;;;;;;;;;;;6.03;100.00;99902.05;1687692;84;20181;-85
2022/11/05 07:40:25;;;;;;;;;;;;;;;6.02;100.00;99896.38;1687692;84;20205;-86
2022/11/05 07:42:57;;;;;;;;;;;;;;;6.00;100.00;99892.92;1687726;85;20138;-85
2022/11/05 07:45:24;;;;;;;;;;;;;;;5.97;100.00;99886.42;1687886;84;21117;-84
2022/11/05 07:47:54;;;;;;;;;;;;;;;5.99;100.00;99886.84;1687648;85;20209;-85
2022/11/05 07:50:23;;;;;;;;;;;;;;;5.97;100.00;99885.12;1687229;84;20200;-83
2022/11/05 07:52:49;;;;;;;;;;;;;;;5.93;100.00;99873.39;1687614;84;20217;-85
2022/11/05 07:55:16;;;;;;;;;;;;;;;5.93;100.00;99876.41;1687707;85;20200;-85
2022/11/05 07:57:46;;;;;;;;;;;;;;;5.90;100.00;99878.64;1687436;84;21144;-85
2022/11/05 08:00:14;;;;;;;;;;;;;;;5.93;100.00;99882.53;1687666;84;20193;-85
2022/11/05 08:02:41;;;;;;;;;;;;;;;5.99;100.00;99902.97;1687991;84;21017;-82
2022/11/05 08:05:07;;;;;;;;;;;;;;;6.02;100.00;99898.99;1687909;84;20208;-82
2022/11/05 08:07:34;;;;;;;;;;;;;;;6.05;100.00;99888.52;1687445;85;20221;-84
2022/11/05 08:10:03;;;;;;;;;;;;;;;6.07;100.00;99892.86;1687547;84;22326;-85
2022/11/05 08:12:30;;;;;;;;;;;;;;;6.07;100.00;99899.39;1687661;84;20220;-83
2022/11/05 08:14:57;;;;;;;;;;;;;;;6.07;100.00;99902.42;1687840;85;20196;-82
2022/11/05 08:17:23;;;;;;;;;;;;;;;6.06;100.00;99907.25;1687792;84;20200;-84
2022/11/05 08:19:49;;;;;;;;;;;;;;;6.07;100.00;99918.09;1688063;85;20225;-85
2022/11/05 08:22:16;;;;;;;;;;;;;;;6.07;100.00;99923.33;1687587;85;21133;-84
2022/11/05 08:24:42;;;;;;;;;;;;;;;6.07;100.00;99917.68;1687742;85;20161;-85
2022/11/05 08:27:09;;;;;;;;;;;;;;;6.08;100.00;99920.70;1687635;84;20208;-84
2022/11/05 08:29:35;;;;;;;;;;;;;;;6.06;100.00;99922.47;1664347;85;20204;-84
2022/11/05 08:32:02;;;;;;;;;;;;;;;6.03;100.00;99920.33;1687594;85;20212;-82
2022/11/05 08:34:29;;;;;;;;;;;;;;;5.94;100.00;99931.25;1687826;84;21167;-85
2022/11/05 08:36:55;;;;;;;;;;;;;;;5.88;100.00;99932.60;1688982;84;20208;-85
2022/11/05 08:39:21;;;;;;;;;;;;;;;5.85;100.00;99930.05;1710621;84;20133;-84
2022/11/05 08:41:49;;;;;;;;;;;;;;;5.83;100.00;99940.92;1710812;84;20209;-83
2022/11/05 08:44:16;;;;;;;;;;;;;;;5.82;100.00;99948.80;1710650;84;20440;-83
2022/11/05 08:46:42;;;;;;;;;;;;;;;5.84;100.00;99959.64;1710784;84;21803;-84
2022/11/05 08:49:09;;;;;;;;;;;;;;;5.87;100.00;99961.38;1710673;84;20534;-85
2022/11/05 08:51:37;;;;;;;;;;;;;;;5.90;100.00;99963.52;1710900;84;20181;-82
2022/11/05 08:54:04;;;;;;;;;;;;;;;5.95;100.00;99963.45;1710833;84;20145;-83
2022/11/05 08:56:30;;;;;;;;;;;;;;;5.97;100.00;99964.78;1710778;84;20153;-83
2022/11/05 08:58:56;;;;;;;;;;;;;;;5.97;100.00;99966.09;1710506;84;21137;-81
2022/11/05 09:01:22;;;;;;;;;;;;;;;5.98;100.00;99970.44;1710705;84;20498;-82
2022/11/05 09:03:50;;;;;;;;;;;;;;;5.99;100.00;99967.82;1710820;84;20447;-84
2022/11/05 09:06:18;;;;;;;;;;;;;;;6.00;100.00;99959.11;1710623;84;21081;-86
2022/11/05 09:08:45;;;;;;;;;;;;;;;6.02;100.00;99965.60;1710988;84;20146;-82
2022/11/05 09:11:12;;;;;;;;;;;;;;;6.01;100.00;99954.75;1710727;84;21801;-84
2022/11/05 09:13:38;;;;;;;;;;;;;;;6.01;100.00;99958.67;1710649;84;20491;-82
2022/11/05 09:16:05;;;;;;;;;;;;;;;6.03;100.00;99958.20;1710837;84;20233;-84
2022/11/05 09:18:32;;;;;;;;;;;;;;;6.05;100.00;99961.24;1710750;84;20470;-80
2022/11/05 09:20:58;;;;;;;;;;;;;;;6.07;100.00;99963.81;1710776;84;20494;-84
2022/11/05 09:23:25;;;;;;;;;;;;;;;6.07;100.00;99967.73;1710542;84;21065;-83
2022/11/05 09:25:51;;;;;;;;;;;;;;;6.08;100.00;99968.17;1710665;84;20200;-84
2022/11/05 09:28:19;;;;;;;;;;;;;;;6.09;100.00;99967.30;1710578;84;20220;-84
2022/11/05 09:30:47;;;;;;;;;;;;;;;6.09;100.00;99964.69;1710754;84;20216;-85
2022/11/05 09:33:14;;;;;;;;;;;;;;;6.08;100.00;99959.89;1710498;84;20216;-84
2022/11/05 09:35:40;;;;;;;;;;;;;;;6.10;100.00;99962.06;1710582;84;21224;-84
2022/11/05 09:38:07;;;;;;;;;;;;;;;6.10;100.00;99959.88;1700530;84;20224;-79
2022/11/05 09:40:40;;;;;;;;;;;;;;;6.08;100.00;99951.19;1687453;85;20243;-84
2022/11/05 09:43:10;;;;;;;;;;;;;;;6.09;100.00;99953.80;1666795;85;20415;-84
2022/11/05 09:45:37;;;;;;;;;;;;;;;6.10;100.00;99950.73;1687424;85;20172;-82
2022/11/05 09:48:07;;;;;;;;;;;;;;;6.11;100.00;99953.33;1687592;84;21645;-84
2022/11/05 09:50:39;;;;;;;;;;;;;;;6.12;100.00;99955.52;1687582;84;20503;-81
2022/11/05 09:53:05;;;;;;;;;;;;;;;6.09;100.00;99951.18;1687591;84;20150;-83
2022/11/05 09:55:37;;;;;;;;;;;;;;;6.08;100.00;99945.97;1687501;85;20196;-81
2022/11/05 09:58:07;;;;;;;;;;;;;;;6.10;100.00;99965.09;1687753;84;20208;-84
2022/11/05 10:00:34;;;;;;;;;;;;;;;6.10;100.00;99969.02;1694175;83;21799;-84
2022/11/05 10:03:06;;;;;;;;;;;;;;;6.05;100.00;99971.70;1701241;83;21040;-82
2022/11/05 10:05:33;;;;;;;;;;;;;;;6.07;100.00;99972.95;1700966;83;20165;-82
2022/11/05 10:08:15;;;;;;;;;;;;;;;6.09;100.00;99973.84;1685882;83;20254;-83
2022/11/05 10:10:42;;;;;;;;;;;;;;;6.08;100.00;99970.34;1679941;84;20298;-84
2022/11/05 10:13:19;;;;;;;;;;;;;;;6.10;100.00;99975.55;1679324;84;21110;-80
2022/11/05 10:15:58;;;;;;;;;;;;;;;6.11;100.00;99979.91;1684274;84;20254;-80
2022/11/05 10:18:31;;;;;;;;;;;;;;;6.14;100.00;99982.05;1689243;83;20628;-84
2022/11/05 10:20:57;;;;;;;;;;;;;;;6.14;100.00;99987.72;1699610;83;20244;-85
2022/11/05 10:23:24;;;;;;;;;;;;;;;6.09;100.00;99982.53;1700709;83;20959;-86
2022/11/05 10:26:03;;;;;;;;;;;;;;;6.09;100.00;99980.37;1701267;83;22033;-85
2022/11/05 10:28:31;;;;;;;;;;;;;;;6.09;100.00;99982.53;1700500;83;20241;-84
2022/11/05 10:31:00;;;;;;;;;;;;;;;6.10;100.00;99971.63;1701093;83;20611;-80
2022/11/05 10:33:48;;;;;;;;;;;;;;;6.08;100.00;99974.25;1701134;83;20727;-84
2022/11/05 10:36:21;;;;;;;;;;;;;;;6.09;100.00;99979.06;1700749;83;20272;-84
2022/11/05 10:38:48;;;;;;;;;;;;;;;6.06;100.00;99973.86;1700662;83;21124;-87
2022/11/05 10:41:33;;;;;;;;;;;;;;;6.05;100.00;99978.64;1699977;83;20152;-84
2022/11/05 10:44:22;;;;;;;;;;;;;;;6.03;100.00;99986.48;1701852;83;20219;-84
2022/11/05 10:46:51;;;;;;;;;;;;;;;6.04;100.00;99986.07;1698661;83;20611;-86
2022/11/05 10:49:33;;;;;;;;;;;;;;;6.04;100.00;99988.69;1683835;84;20520;-86
2022/11/05 10:52:04;;;;;;;;;;;;;;;6.06;100.00;99983.86;1681244;85;21182;-80
2022/11/05 10:54:32;;;;;;;;;;;;;;;6.07;100.00;99983.41;1679775;85;20239;-84
2022/11/05 10:56:59;;;;;;;;;;;;;;;6.05;100.00;99999.13;1685651;82;20191;-80
2022/11/05 10:59:26;;;;;;;;;;;;;;;6.02;100.00;99995.64;1680313;84;20235;-82
2022/11/05 11:02:00;;;;;;;;;;;;;;;5.99;100.00;99997.86;1682619;83;20206;-82
2022/11/05 11:04:26;;;;;;;;;;;;;;;6.00;100.00;99994.80;1684515;85;21182;-79
2022/11/05 11:06:54;;;;;;;;;;;;;;;6.01;100.00;99993.92;1684526;85;20144;-83
2022/11/05 11:09:27;;;;;;;;;;;;;;;6.03;100.00;99992.16;1688040;83;20166;-82
2022/11/05 11:12:05;;;;;;;;;;;;;;;6.01;100.00;99987.40;1699187;83;21130;-88
2022/11/05 11:14:33;;;;;;;;;;;;;;;6.02;100.00;99982.58;1699669;83;20941;-85
2022/11/05 11:17:25;;;;;;;;;;;;;;;6.02;100.00;99980.86;1694298;83;21163;-80
2022/11/05 11:19:52;;;;;;;;;;;;;;;6.03;100.00;99983.02;1684919;84;20262;-83
2022/11/05 11:22:19;;;;;;;;;;;;;;;6.00;100.00;99986.96;1663162;85;20222;-82
2022/11/05 11:24:50;;;;;;;;;;;;;;;6.02;100.00;99991.72;1686018;85;20239;-83
2022/11/05 11:27:21;;;;;;;;;;;;;;;6.07;100.00;99996.47;1656803;86;20915;-81
2022/11/05 11:29:52;;;;;;;;;;;;;;;6.10;100.00;100001.67;1662800;86;20730;-85
2022/11/05 11:32:19;;;;;;;;;;;;;;;6.09;100.00;100003.88;1663479;85;20311;-81
2022/11/05 11:34:48;;;;;;;;;;;;;;;6.10;100.00;100005.59;1666692;85;20264;-81
2022/11/05 11:37:17;;;;;;;;;;;;;;;6.12;100.00;100011.24;1655689;86;20212;-83
2022/11/05 11:39:48;;;;;;;;;;;;;;;6.15;100.00;100010.34;1668213;84;20223;-84
2022/11/05 11:42:18;;;;;;;;;;;;;;;6.18;100.00;100010.31;1678180;84;21566;-82
2022/11/05 11:44:45;;;;;;;;;;;;;;;6.18;100.00;100006.84;1689036;84;20237;-81
2022/11/05 11:47:13;;;;;;;;;;;;;;;6.20;100.00;100000.70;1690077;84;20184;-84
2022/11/05 11:49:47;;;;;;;;;;;;;;;6.23;100.00;100007.22;1689739;84;20207;-81
2022/11/05 11:52:19;;;;;;;;;;;;;;;6.23;100.00;99996.77;1684745;84;20633;-80
2022/11/05 11:54:47;;;;;;;;;;;;;;;6.23;100.00;99996.77;1674672;84;20296;-83
2022/11/05 11:57:26;;;;;;;;;;;;;;;6.21;100.00;100002.45;1674034;84;20226;-79
2022/11/05 11:59:54;;;;;;;;;;;;;;;6.22;100.00;100008.12;1676525;84;20168;-82
2022/11/05 12:02:36;;;;;;;;;;;;;;;6.19;100.00;100004.22;1677542;84;20134;-82
2022/11/05 12:05:36;;;;;;;;;;;;;;;6.15;100.00;100005.11;1670798;84;20266;-83
2022/11/05 12:08:15;;;;;;;;;;;;;;;6.13;100.00;99993.81;1674747;84;21150;-84
2022/11/05 12:11:19;;;;;;;;;;;;;;;6.13;100.00;99992.51;1635578;87;20152;-82
2022/11/05 12:14:03;;;;;;;;;;;;;;;6.14;100.00;99993.80;1664119;85;20156;-81
2022/11/05 12:17:00;;;;;;;;;;;;;;;6.14;100.00;99995.11;1639806;86;20393;-85
2022/11/05 12:19:53;;;;;;;;;;;;;;;6.15;100.00;99989.44;1713090;82;20229;-82
2022/11/05 12:22:26;;;;;;;;;;;;;;;6.17;100.00;99992.03;1705872;82;20989;-85
2022/11/05 12:25:14;;;;;;;;;;;;;;;6.16;100.00;99995.09;1697464;82;20324;-83
2022/11/05 12:28:01;;;;;;;;;;;;;;;6.17;100.00;99996.84;1698063;83;20595;-88
2022/11/05 12:30:27;;;;;;;;;;;;;;;6.18;100.00;99994.64;1697774;83;20178;-82
2022/11/05 12:33:14;;;;;;;;;;;;;;;6.19;100.00;99988.99;1714093;83;20206;-84
2022/11/05 12:35:54;;;;;;;;;;;;;;;6.21;100.00;99991.14;1717682;82;21231;-78
2022/11/05 12:38:24;;;;;;;;;;;;;;;6.22;100.00;99997.66;1705519;83;20340;-77
2022/11/05 12:40:58;;;;;;;;;;;;;;;6.23;100.00;99999.83;1683236;81;20106;-80
2022/11/05 12:43:39;;;;;;;;;;;;;;;6.23;100.00;100008.53;1658305;84;20175;-81
2022/11/05 12:46:46;;;;;;;;;;;;;;;6.24;100.00;100013.33;1655389;81;20252;-82
2022/11/05 12:49:22;;;;;;;;;;;;;;;6.25;100.00;100018.97;1551438;91;21024;-84
2022/11/05 12:52:04;;;;;;;;;;;;;;;6.24;100.00;100018.11;1549817;92;20230;-83
2022/11/05 12:54:37;;;;;;;;;;;;;;;6.24;100.00;100025.95;1609532;84;20211;-82
2022/11/05 12:57:05;;;;;;;;;;;;;;;6.22;100.00;100025.52;1652719;86;20235;-81
2022/11/05 12:59:35;;;;;;;;;;;;;;;6.20;100.00;100032.52;1654894;84;20263;-79
2022/11/05 13:02:20;;;;;;;;;;;;;;;6.20;100.00;100033.82;1656279;84;21149;-80
2022/11/05 13:05:12;;;;;;;;;;;;;;;6.20;100.00;100039.05;1662083;84;20246;-80
2022/11/05 13:07:42;;;;;;;;;;;;;;;6.19;100.00;100029.49;1661618;84;20304;-79
2022/11/05 13:10:21;;;;;;;;;;;;;;;6.18;100.00;100038.20;1651934;86;20707;-84
2022/11/05 13:12:56;;;;;;;;;;;;;;;6.19;100.00;100042.11;1653723;86;20610;-84
2022/11/05 13:15:28;;;;;;;;;;;;;;;6.20;100.00;100041.21;1622196;84;21151;-85
2022/11/05 13:18:02;;;;;;;;;;;;;;;6.21;100.00;100047.33;1674277;84;20234;-88
2022/11/05 13:20:35;;;;;;;;;;;;;;;6.21;100.00;100050.80;1668001;85;20253;-83
2022/11/05 13:23:06;;;;;;;;;;;;;;;6.22;100.00;100051.23;1652134;86;20296;-81
2022/11/05 13:25:36;;;;;;;;;;;;;;;6.24;100.00;100059.92;1654450;85;20192;-87
2022/11/05 13:28:16;;;;;;;;;;;;;;;6.24;100.00;100062.53;1674771;84;22322;-77
2022/11/05 13:30:44;;;;;;;;;;;;;;;6.25;100.00;100064.25;1670567;84;20215;-83
2022/11/05 13:33:13;;;;;;;;;;;;;;;6.29;100.00;100076.42;1674509;85;20197;-83
2022/11/05 13:35:47;;;;;;;;;;;;;;;6.30;100.00;100075.56;1676339;85;20374;-86
2022/11/05 13:41:42;;;;;;;;;;;;;;;6.28;100.00;100076.44;1663034;85;21554;-88
2022/11/05 13:44:31;;;;;;;;;;;;;;;6.29;100.00;100084.27;1669613;85;20220;-81
2022/11/05 13:47:36;;;;;;;;;;;;;;;6.25;100.00;100083.84;1673780;85;20303;-82